createdAt,value
2018-04-20T00:01:54.965Z,54.10
2018-04-20T00:04:22.441Z,54.20
2018-04-20T00:06:49.901Z,54.30
2018-04-20T00:09:17.434Z,54.20
2018-04-20T00:11:46.397Z,54.50
2018-04-20T00:14:13.882Z,54.50
2018-04-20T00:16:42.874Z,54.60
2018-04-20T00:19:10.345Z,54.60
2018-04-20T00:21:37.801Z,54.70
2018-04-20T00:24:05.267Z,54.70
2018-04-20T00:26:32.731Z,54.80
2018-04-20T00:29:00.966Z,54.90
2018-04-20T00:31:28.426Z,54.90
2018-04-20T00:33:55.890Z,54.90
2018-04-20T00:36:23.351Z,54.90
2018-04-20T00:38:50.814Z,54.90
2018-04-20T00:41:18.286Z,54.90
2018-04-20T00:43:45.739Z,54.90
2018-04-20T00:46:13.202Z,55.00
2018-04-20T00:48:40.672Z,55.00
2018-04-20T00:51:08.135Z,54.80
2018-04-20T00:53:47.272Z,54.90
2018-04-20T00:56:14.739Z,54.90
2018-04-20T00:58:42.193Z,55.10
2018-04-20T01:01:09.663Z,55.20
2018-04-20T01:03:37.122Z,55.30
2018-04-20T01:06:04.630Z,55.40
2018-04-20T01:08:32.087Z,55.40
2018-04-20T01:10:59.549Z,55.50
2018-04-20T01:13:27.006Z,55.80
2018-04-20T01:15:55.257Z,55.90
2018-04-20T01:18:22.714Z,56.00
2018-04-20T01:20:50.206Z,55.90
2018-04-20T01:23:17.674Z,56.10
2018-04-20T01:25:45.128Z,56.20
2018-04-20T01:28:12.606Z,56.10
2018-04-20T01:30:40.070Z,56.30
2018-04-20T01:33:07.534Z,56.50
2018-04-20T01:35:34.994Z,56.60
2018-04-20T01:38:02.457Z,56.60
2018-04-20T01:40:29.918Z,56.40
2018-04-20T01:42:57.381Z,56.40
2018-04-20T01:45:24.834Z,56.60
2018-04-20T01:47:52.306Z,56.60
2018-04-20T01:50:19.773Z,56.80
2018-04-20T01:52:47.239Z,56.80
2018-04-20T01:55:14.697Z,56.90
2018-04-20T01:57:42.350Z,57.00
2018-04-20T02:00:09.801Z,57.10
2018-04-20T02:02:37.258Z,57.20
2018-04-20T02:05:04.785Z,57.30
2018-04-20T02:07:32.249Z,57.30
2018-04-20T02:09:59.713Z,57.30
2018-04-20T02:12:27.161Z,57.40
2018-04-20T02:14:54.621Z,57.50
2018-04-20T02:17:22.079Z,57.60
2018-04-20T02:19:49.546Z,57.60
2018-04-20T02:22:16.998Z,57.60
2018-04-20T02:24:44.461Z,57.70
2018-04-20T02:27:11.917Z,57.70
2018-04-20T02:29:39.377Z,57.90
2018-04-20T02:32:06.829Z,57.90
2018-04-20T02:34:34.294Z,58.00
2018-04-20T02:37:02.039Z,58.00
2018-04-20T02:39:29.506Z,58.10
2018-04-20T02:41:57.161Z,58.20
2018-04-20T02:44:24.634Z,58.20
2018-04-20T02:46:52.169Z,58.20
2018-04-20T02:49:19.831Z,58.20
2018-04-20T02:51:47.302Z,58.30
2018-04-20T02:54:14.760Z,58.30
2018-04-20T02:56:42.302Z,58.30
2018-04-20T02:59:09.758Z,58.30
2018-04-20T03:01:37.223Z,58.40
2018-04-20T03:04:05.145Z,58.50
2018-04-20T03:06:33.305Z,58.50
2018-04-20T03:09:00.759Z,58.70
2018-04-20T03:11:28.230Z,58.70
2018-04-20T03:13:55.685Z,58.80
2018-04-20T03:16:23.150Z,58.90
2018-04-20T03:18:50.606Z,58.90
2018-04-20T03:21:18.082Z,59.00
2018-04-20T03:23:45.538Z,59.00
2018-04-20T03:26:13.005Z,58.90
2018-04-20T03:28:40.474Z,59.10
2018-04-20T03:31:07.937Z,59.20
2018-04-20T03:33:35.390Z,59.20
2018-04-20T03:36:02.858Z,59.20
2018-04-20T03:38:31.218Z,59.30
2018-04-20T03:40:58.681Z,59.40
2018-04-20T03:43:26.438Z,59.40
2018-04-20T03:45:53.905Z,59.70
2018-04-20T03:48:21.574Z,59.80
2018-04-20T03:50:49.030Z,59.70
2018-04-20T03:53:16.495Z,59.70
2018-04-20T03:55:43.953Z,59.80
2018-04-20T03:58:11.418Z,59.90
2018-04-20T04:00:39.642Z,60.00
2018-04-20T04:03:07.112Z,59.90
2018-04-20T04:05:34.574Z,60.00
2018-04-20T04:08:02.039Z,60.10
2018-04-20T04:10:29.573Z,60.20
2018-04-20T04:12:57.149Z,60.30
2018-04-20T04:15:24.610Z,60.50
2018-04-20T04:18:03.969Z,60.60
2018-04-20T04:20:36.014Z,60.60
2018-04-20T04:23:15.273Z,60.80
2018-04-20T04:25:54.678Z,60.60
2018-04-20T04:28:26.743Z,60.60
2018-04-20T04:30:54.505Z,60.60
2018-04-20T04:33:21.973Z,60.60
2018-04-20T04:35:49.721Z,60.60
2018-04-20T04:38:17.493Z,60.80
2018-04-20T04:40:45.361Z,60.90
2018-04-20T04:43:12.969Z,60.90
2018-04-20T04:45:41.398Z,61.00
2018-04-20T04:48:08.944Z,61.00
2018-04-20T04:50:36.519Z,61.10
2018-04-20T04:53:03.974Z,61.10
2018-04-20T04:55:31.477Z,61.10
2018-04-20T04:57:58.928Z,61.10
2018-04-20T05:00:26.400Z,61.00
2018-04-20T05:02:53.903Z,61.20
2018-04-20T05:05:21.657Z,61.20
2018-04-20T05:07:49.114Z,61.10
2018-04-20T05:10:16.881Z,61.20
2018-04-20T05:12:46.184Z,61.10
2018-04-20T05:15:13.653Z,61.10
2018-04-20T05:17:41.313Z,60.80
2018-04-20T05:20:08.803Z,60.90
2018-04-20T05:22:37.074Z,60.80
2018-04-20T05:25:04.701Z,60.70
2018-04-20T05:27:32.173Z,60.70
2018-04-20T05:29:59.918Z,60.70
2018-04-20T05:32:27.551Z,60.70
2018-04-20T05:34:55.086Z,60.60
2018-04-20T05:37:23.742Z,60.80
2018-04-20T05:39:51.201Z,60.70
2018-04-20T05:42:18.694Z,60.70
2018-04-20T05:44:46.154Z,60.60
2018-04-20T05:47:13.646Z,60.50
2018-04-20T05:49:41.102Z,60.50
2018-04-20T05:52:08.750Z,60.30
2018-04-20T05:54:36.210Z,60.00
2018-04-20T05:57:03.677Z,60.00
2018-04-20T05:59:31.137Z,59.90
2018-04-20T06:02:01.516Z,59.80
2018-04-20T06:04:28.977Z,59.70
2018-04-20T06:06:56.558Z,59.70
2018-04-20T06:09:24.023Z,59.70
2018-04-20T06:11:51.522Z,59.70
2018-04-20T06:14:18.978Z,59.60
2018-04-20T06:16:46.453Z,59.40
2018-04-20T06:19:13.910Z,59.30
2018-04-20T06:21:41.378Z,59.30
2018-04-20T06:24:08.835Z,59.20
2018-04-20T06:26:36.317Z,59.20
2018-04-20T06:29:03.977Z,59.10
2018-04-20T06:31:31.546Z,58.90
2018-04-20T06:33:59.017Z,58.90
2018-04-20T06:36:26.678Z,58.80
2018-04-20T06:38:55.035Z,58.60
2018-04-20T06:41:22.619Z,58.50
2018-04-20T06:43:50.086Z,58.40
2018-04-20T06:46:18.598Z,57.70
2018-04-20T06:48:46.058Z,57.70
2018-04-20T06:51:13.514Z,57.60
2018-04-20T06:53:40.990Z,57.50
2018-04-20T06:56:08.450Z,57.40
2018-04-20T06:58:35.913Z,57.30
2018-04-20T07:01:03.374Z,57.10
2018-04-20T07:03:30.842Z,57.00
2018-04-20T07:05:58.307Z,56.80
2018-04-20T07:08:25.770Z,56.80
2018-04-20T07:10:53.230Z,56.70
2018-04-20T07:13:20.715Z,56.50
2018-04-20T07:15:48.183Z,56.30
2018-04-20T07:18:15.650Z,56.20
2018-04-20T07:20:43.143Z,56.00
2018-04-20T07:23:10.647Z,55.90
2018-04-20T07:25:38.109Z,55.60
2018-04-20T07:28:05.831Z,55.60
2018-04-20T07:30:33.332Z,55.50
2018-04-20T07:33:00.786Z,55.40
2018-04-20T07:35:28.250Z,55.30
2018-04-20T07:37:55.706Z,55.20
2018-04-20T07:40:23.187Z,55.10
2018-04-20T07:42:50.654Z,54.90
2018-04-20T07:45:18.127Z,54.90
2018-04-20T07:47:45.596Z,55.00
2018-04-20T07:50:14.009Z,54.90
2018-04-20T07:52:41.489Z,54.90
2018-04-20T07:55:08.963Z,54.80
2018-04-20T07:57:36.424Z,54.80
2018-04-20T08:00:03.894Z,54.90
2018-04-20T08:02:31.370Z,54.80
2018-04-20T08:04:58.840Z,54.70
2018-04-20T08:07:26.294Z,54.50
2018-04-20T08:09:53.964Z,54.60
2018-04-20T08:12:22.310Z,54.60
2018-04-20T08:14:50.558Z,54.70
2018-04-20T08:17:18.018Z,54.70
2018-04-20T08:19:45.645Z,54.70
2018-04-20T08:22:13.093Z,54.70
2018-04-20T08:24:40.574Z,54.80
2018-04-20T08:27:08.155Z,54.70
2018-04-20T08:29:35.790Z,54.60
2018-04-20T08:32:03.374Z,54.60
2018-04-20T08:34:31.137Z,54.60
2018-04-20T08:36:58.907Z,54.40
2018-04-20T08:39:26.934Z,54.30
2018-04-20T08:41:54.587Z,54.20
2018-04-20T08:44:22.226Z,54.00
2018-04-20T08:46:49.807Z,53.70
2018-04-20T08:49:17.322Z,53.60
2018-04-20T08:51:45.679Z,53.20
2018-04-20T08:54:13.137Z,53.20
2018-04-20T08:56:40.616Z,52.80
2018-04-20T08:59:08.078Z,52.20
2018-04-20T09:01:35.532Z,51.60
2018-04-20T09:04:03.018Z,51.30
2018-04-20T09:06:30.466Z,51.00
2018-04-20T09:08:58.014Z,50.70
2018-04-20T09:11:25.474Z,50.40
2018-04-20T09:13:52.958Z,50.20
2018-04-20T09:16:20.414Z,50.00
2018-04-20T09:18:47.882Z,49.80
2018-04-20T09:21:15.338Z,49.60
2018-04-20T09:23:42.818Z,49.40
2018-04-20T09:26:10.274Z,49.30
2018-04-20T09:28:37.742Z,49.20
2018-04-20T09:31:05.531Z,49.00
2018-04-20T09:33:33.762Z,48.40
2018-04-20T09:36:01.866Z,48.80
2018-04-20T09:38:29.322Z,48.80
2018-04-20T09:40:56.790Z,48.80
2018-04-20T09:43:24.250Z,48.80
2018-04-20T09:45:51.710Z,48.70
2018-04-20T09:48:19.188Z,48.50
2018-04-20T09:50:46.654Z,48.30
2018-04-20T09:53:14.114Z,48.20
2018-04-20T09:55:41.586Z,48.30
2018-04-20T09:58:09.034Z,48.20
2018-04-20T10:00:41.456Z,48.20
2018-04-20T10:03:12.230Z,48.20
2018-04-20T10:05:39.747Z,47.80
2018-04-20T10:08:07.155Z,47.60
2018-04-20T10:10:34.626Z,47.50
2018-04-20T10:13:02.082Z,47.30
2018-04-20T10:15:29.555Z,47.10
2018-04-20T10:17:57.070Z,46.90
2018-04-20T10:20:24.522Z,46.80
2018-04-20T10:22:52.005Z,46.70
2018-04-20T10:25:19.462Z,46.60
2018-04-20T10:27:46.919Z,46.50
2018-04-20T10:30:14.402Z,46.40
2018-04-20T10:32:41.860Z,46.20
2018-04-20T10:35:09.310Z,46.10
2018-04-20T10:37:36.797Z,45.90
2018-04-20T10:40:04.246Z,46.00
2018-04-20T10:42:31.718Z,45.90
2018-04-20T10:44:59.173Z,45.60
2018-04-20T10:47:26.843Z,45.40
2018-04-20T10:49:54.299Z,45.30
2018-04-20T10:52:21.770Z,45.10
2018-04-20T10:54:49.230Z,45.00
2018-04-20T10:57:16.702Z,44.90
2018-04-20T10:59:44.161Z,44.90
2018-04-20T11:02:11.627Z,44.80
2018-04-20T11:04:39.088Z,45.00
2018-04-20T11:07:06.550Z,45.00
2018-04-20T11:09:34.014Z,44.90
2018-04-20T11:12:01.523Z,44.80
2018-04-20T11:14:29.192Z,44.60
2018-04-20T11:16:56.641Z,44.70
2018-04-20T11:19:24.110Z,44.70
2018-04-20T11:21:51.574Z,44.70
2018-04-20T11:24:19.042Z,44.60
2018-04-20T11:26:46.494Z,44.30
2018-04-20T11:29:13.958Z,43.90
2018-04-20T11:31:41.418Z,43.70
2018-04-20T11:34:08.885Z,43.50
2018-04-20T11:36:36.353Z,43.50
2018-04-20T11:39:03.818Z,43.40
2018-04-20T11:41:31.275Z,43.40
2018-04-20T11:43:58.742Z,43.50
2018-04-20T11:46:26.199Z,43.40
2018-04-20T11:48:53.684Z,43.20
2018-04-20T11:51:21.174Z,43.20
2018-04-20T11:53:49.418Z,43.20
2018-04-20T11:56:16.868Z,43.20
2018-04-20T11:58:44.395Z,43.10
2018-04-20T12:01:11.849Z,43.00
2018-04-20T12:03:40.075Z,42.60
2018-04-20T12:06:07.722Z,42.60
2018-04-20T12:08:35.173Z,42.50
2018-04-20T12:11:02.784Z,42.50
2018-04-20T12:13:30.230Z,42.20
2018-04-20T12:15:57.698Z,42.00
2018-04-20T12:18:25.155Z,41.80
2018-04-20T12:20:52.632Z,41.70
2018-04-20T12:23:20.850Z,42.20
2018-04-20T12:25:48.322Z,41.60
2018-04-20T12:28:15.777Z,41.40
2018-04-20T12:30:43.251Z,41.30
2018-04-20T12:33:10.698Z,41.50
2018-04-20T12:35:38.169Z,41.20
2018-04-20T12:38:05.626Z,40.90
2018-04-20T12:40:33.090Z,40.60
2018-04-20T12:43:00.549Z,40.40
2018-04-20T12:45:28.062Z,40.20
2018-04-20T12:47:55.495Z,40.10
2018-04-20T12:50:22.963Z,40.10
2018-04-20T12:52:50.421Z,39.90
2018-04-20T12:55:17.883Z,39.80
2018-04-20T12:57:45.342Z,39.80
2018-04-20T13:00:12.815Z,40.00
2018-04-20T13:02:40.274Z,39.90
2018-04-20T13:05:07.737Z,39.70
2018-04-20T13:07:35.201Z,39.50
2018-04-20T13:10:02.727Z,39.40
2018-04-20T13:12:30.183Z,39.20
2018-04-20T13:14:57.636Z,38.90
2018-04-20T13:17:25.098Z,38.90
2018-04-20T13:19:52.554Z,38.80
2018-04-20T13:22:20.028Z,38.50
2018-04-20T13:24:47.506Z,38.40
2018-04-20T13:27:14.973Z,38.70
2018-04-20T13:29:42.430Z,38.60
2018-04-20T13:32:09.959Z,38.20
2018-04-20T13:34:37.597Z,37.70
2018-04-20T13:37:05.097Z,37.40
2018-04-20T13:39:32.550Z,37.30
2018-04-20T13:42:00.014Z,37.20
2018-04-20T13:44:27.479Z,36.90
2018-04-20T13:46:54.952Z,36.70
2018-04-20T13:49:22.409Z,36.00
2018-04-20T13:51:50.642Z,34.20
2018-04-20T13:54:18.952Z,34.10
2018-04-20T13:56:46.406Z,31.40
2018-04-20T13:59:13.866Z,29.30
2018-04-20T14:01:41.334Z,28.20
2018-04-20T14:04:08.799Z,27.20
2018-04-20T14:06:36.284Z,26.00
2018-04-20T14:09:03.743Z,24.60
2018-04-20T14:11:31.194Z,23.50
2018-04-20T14:13:58.661Z,22.90
2018-04-20T14:16:26.118Z,23.00
2018-04-20T14:18:53.602Z,22.40
2018-04-20T14:21:21.047Z,21.90
2018-04-20T14:23:48.521Z,22.30
2018-04-20T14:26:16.031Z,22.70
2018-04-20T14:28:44.145Z,23.10
2018-04-20T14:31:11.601Z,23.40
2018-04-20T14:33:39.066Z,23.60
2018-04-20T14:36:06.526Z,23.80
2018-04-20T14:38:34.013Z,23.10
2018-04-20T14:41:01.470Z,23.50
2018-04-20T14:43:28.942Z,23.20
2018-04-20T14:45:56.402Z,22.50
2018-04-20T14:48:23.867Z,22.00
2018-04-20T14:50:51.326Z,21.60
2018-04-20T14:53:18.798Z,21.40
2018-04-20T14:55:46.263Z,21.60
2018-04-20T14:58:13.724Z,22.20
2018-04-20T15:00:41.215Z,22.30
2018-04-20T15:03:08.726Z,22.50
2018-04-20T15:05:36.247Z,22.50
2018-04-20T15:08:03.723Z,22.90
2018-04-20T15:10:32.340Z,23.60
2018-04-20T15:12:59.883Z,24.50
2018-04-20T15:15:27.366Z,25.60
2018-04-20T15:17:54.844Z,26.40
2018-04-20T15:20:22.354Z,26.90
2018-04-20T15:22:49.849Z,27.40
2018-04-20T15:25:17.344Z,27.60
2018-04-20T15:27:44.820Z,27.60
2018-04-20T15:30:12.357Z,27.60
2018-04-20T15:32:39.836Z,27.40
2018-04-20T15:35:07.434Z,27.30
2018-04-20T15:37:35.203Z,27.30
2018-04-20T15:40:02.669Z,27.10
2018-04-20T15:42:30.157Z,26.90
2018-04-20T15:44:57.634Z,26.80
2018-04-20T15:47:25.134Z,26.80
2018-04-20T15:49:52.640Z,26.30
2018-04-20T15:52:20.134Z,25.60
2018-04-20T15:54:47.605Z,25.40
2018-04-20T15:57:15.083Z,25.50
2018-04-20T15:59:42.562Z,25.40
2018-04-20T16:02:10.057Z,24.90
2018-04-20T16:04:37.528Z,24.40
2018-04-20T16:07:05.011Z,24.40
2018-04-20T16:09:32.492Z,24.20
2018-04-20T16:11:59.993Z,23.90
2018-04-20T16:14:27.463Z,24.30
2018-04-20T16:16:54.931Z,24.50
2018-04-20T16:19:23.175Z,25.30
2018-04-20T16:21:50.680Z,25.10
2018-04-20T16:24:19.234Z,25.40
2018-04-20T16:26:46.702Z,25.50
2018-04-20T16:29:14.187Z,25.50
2018-04-20T16:31:41.670Z,25.70
2018-04-20T16:34:09.137Z,26.30
2018-04-20T16:36:36.608Z,26.40
2018-04-20T16:39:06.633Z,25.60
2018-04-20T16:41:34.029Z,26.00
2018-04-20T16:44:01.511Z,26.40
2018-04-20T16:46:28.990Z,26.90
2018-04-20T16:48:56.475Z,27.00
2018-04-20T16:51:23.928Z,26.90
2018-04-20T16:53:51.453Z,26.60
2018-04-20T16:56:19.334Z,26.90
2018-04-20T16:58:46.832Z,26.50
2018-04-20T17:01:14.323Z,26.90
2018-04-20T17:03:41.810Z,27.50
2018-04-20T17:06:09.296Z,27.70
2018-04-20T17:08:37.536Z,28.00
2018-04-20T17:11:04.993Z,28.00
2018-04-20T17:13:32.499Z,28.00
2018-04-20T17:15:59.974Z,28.50
2018-04-20T17:18:27.451Z,28.80
2018-04-20T17:20:54.927Z,28.80
2018-04-20T17:23:22.386Z,28.90
2018-04-20T17:25:49.861Z,29.30
2018-04-20T17:28:17.345Z,29.90
2018-04-20T17:30:44.836Z,30.30
2018-04-20T17:33:12.305Z,31.40
2018-04-20T17:35:41.280Z,32.10
2018-04-20T17:38:08.775Z,32.50
2018-04-20T17:40:36.281Z,32.90
2018-04-20T17:43:03.782Z,33.10
2018-04-20T17:45:31.305Z,33.60
2018-04-20T17:47:58.751Z,34.10
2018-04-20T17:50:26.217Z,34.70
2018-04-20T17:52:53.712Z,35.10
2018-04-20T17:55:21.229Z,35.30
2018-04-20T17:57:48.700Z,35.50
2018-04-20T18:00:16.162Z,35.90
2018-04-20T18:02:43.690Z,36.40
2018-04-20T18:05:11.167Z,36.70
2018-04-20T18:07:38.650Z,37.00
2018-04-20T18:10:06.214Z,37.10
2018-04-20T18:12:33.734Z,37.20
2018-04-20T18:15:02.379Z,37.40
2018-04-20T18:17:29.888Z,37.70
2018-04-20T18:19:57.411Z,37.60
2018-04-20T18:22:24.935Z,38.20
2018-04-20T18:24:53.481Z,38.40
2018-04-20T18:27:20.947Z,38.50
2018-04-20T18:29:48.419Z,38.70
2018-04-20T18:32:15.909Z,39.00
2018-04-20T18:34:43.384Z,39.30
2018-04-20T18:37:10.866Z,39.90
2018-04-20T18:39:38.366Z,40.30
2018-04-20T18:42:05.923Z,40.60
2018-04-20T18:44:33.440Z,40.70
2018-04-20T18:47:00.910Z,40.80
2018-04-20T18:49:28.400Z,41.20
2018-04-20T18:51:55.892Z,41.20
2018-04-20T18:54:23.381Z,41.30
2018-04-20T18:56:50.900Z,41.60
2018-04-20T18:59:18.412Z,41.80
2018-04-20T19:01:45.918Z,42.00
2018-04-20T19:04:13.444Z,42.40
2018-04-20T19:06:40.918Z,42.60
2018-04-20T19:09:08.417Z,42.90
2018-04-20T19:11:35.898Z,43.10
2018-04-20T19:14:03.384Z,43.40
2018-04-20T19:16:30.876Z,43.70
2018-04-20T19:18:58.395Z,44.00
2018-04-20T19:21:25.878Z,44.00
2018-04-20T19:23:54.153Z,44.70
2018-04-20T19:26:21.621Z,44.60
2018-04-20T19:28:49.098Z,45.50
2018-04-20T19:31:16.586Z,45.30
2018-04-20T19:33:44.062Z,45.60
2018-04-20T19:36:11.564Z,45.90
2018-04-20T19:38:39.054Z,46.70
2018-04-20T19:41:06.549Z,46.30
2018-04-20T19:43:34.018Z,47.00
2018-04-20T19:46:01.523Z,47.00
2018-04-20T19:48:29.046Z,47.10
2018-04-20T19:50:56.544Z,47.20
2018-04-20T19:53:24.034Z,47.30
2018-04-20T19:55:51.529Z,47.50
2018-04-20T19:58:19.020Z,47.60
2018-04-20T20:00:46.542Z,47.70
2018-04-20T20:03:14.009Z,47.80
2018-04-20T20:05:41.490Z,47.90
2018-04-20T20:08:09.029Z,47.90
2018-04-20T20:10:36.558Z,48.10
2018-04-20T20:13:04.797Z,48.60
2018-04-20T20:15:32.335Z,48.50
2018-04-20T20:17:59.835Z,48.70
2018-04-20T20:20:28.194Z,49.50
2018-04-20T20:22:55.701Z,49.00
2018-04-20T20:25:23.182Z,49.30
2018-04-20T20:27:50.674Z,49.60
2018-04-20T20:30:18.151Z,49.80
2018-04-20T20:32:45.668Z,50.20
2018-04-20T20:35:13.152Z,50.60
2018-04-20T20:37:40.673Z,50.90
2018-04-20T20:40:08.205Z,51.20
2018-04-20T20:42:35.729Z,51.40
2018-04-20T20:45:03.214Z,51.60
2018-04-20T20:47:30.715Z,51.60
2018-04-20T20:49:58.197Z,51.60
2018-04-20T20:52:25.672Z,51.70
2018-04-20T20:54:53.911Z,51.90
2018-04-20T20:57:21.414Z,51.90
2018-04-20T20:59:48.916Z,52.00
2018-04-20T21:02:16.478Z,52.20
2018-04-20T21:04:43.935Z,53.00
2018-04-20T21:07:11.435Z,52.40
2018-04-20T21:09:39.682Z,52.90
2018-04-20T21:12:07.180Z,52.90
2018-04-20T21:14:34.677Z,53.00
2018-04-20T21:17:02.205Z,53.30
2018-04-20T21:19:29.675Z,53.50
2018-04-20T21:21:57.144Z,54.20
2018-04-20T21:24:24.644Z,53.80
2018-04-20T21:26:53.196Z,54.00
2018-04-20T21:29:20.666Z,54.10
2018-04-20T21:31:48.139Z,54.40
2018-04-20T21:34:15.692Z,54.50
2018-04-20T21:36:43.209Z,54.70
2018-04-20T21:39:10.678Z,54.80
2018-04-20T21:41:38.162Z,55.00
2018-04-20T21:44:05.780Z,55.30
2018-04-20T21:46:33.265Z,55.20
2018-04-20T21:49:00.744Z,55.50
2018-04-20T21:51:28.987Z,55.60
2018-04-20T21:53:56.507Z,56.10
2018-04-20T21:56:24.763Z,55.70
2018-04-20T21:58:52.283Z,55.70
2018-04-20T22:01:19.796Z,55.80
2018-04-20T22:03:48.076Z,56.30
2018-04-20T22:06:15.534Z,56.20
2018-04-20T22:08:42.998Z,56.40
2018-04-20T22:11:10.859Z,56.50
2018-04-20T22:13:38.332Z,56.60
2018-04-20T22:16:05.778Z,56.70
2018-04-20T22:18:33.245Z,56.70
2018-04-20T22:21:00.700Z,56.80
2018-04-20T22:23:28.166Z,56.90
2018-04-20T22:25:55.628Z,57.00
2018-04-20T22:28:23.093Z,57.10
2018-04-20T22:30:50.569Z,57.10
2018-04-20T22:33:18.026Z,57.20
2018-04-20T22:35:45.490Z,57.30
2018-04-20T22:38:12.960Z,57.30
2018-04-20T22:40:40.422Z,57.40
2018-04-20T22:43:07.887Z,57.50
2018-04-20T22:45:35.350Z,57.60
2018-04-20T22:48:02.854Z,57.60
2018-04-20T22:50:30.314Z,57.80
2018-04-20T22:52:57.770Z,57.90
2018-04-20T22:55:25.249Z,58.00
2018-04-20T22:57:52.714Z,58.10
2018-04-20T23:00:21.994Z,58.30
2018-04-20T23:02:49.846Z,58.50
2018-04-20T23:05:17.292Z,58.50
2018-04-20T23:07:44.918Z,58.70
2018-04-20T23:10:13.168Z,59.20
2018-04-20T23:12:40.630Z,59.20
2018-04-20T23:15:08.408Z,59.20
2018-04-20T23:17:36.638Z,59.10
2018-04-20T23:20:04.865Z,59.10
2018-04-20T23:22:33.095Z,59.20
2018-04-20T23:25:00.550Z,59.20
2018-04-20T23:27:28.023Z,59.20
2018-04-20T23:29:55.485Z,59.30
2018-04-20T23:32:22.954Z,59.30
2018-04-20T23:34:50.415Z,59.40
2018-04-20T23:37:18.650Z,59.50
2018-04-20T23:39:46.110Z,59.50
2018-04-20T23:42:13.590Z,59.60
2018-04-20T23:44:41.046Z,59.60
2018-04-20T23:47:08.510Z,59.70
2018-04-20T23:49:35.966Z,59.80
2018-04-20T23:52:03.435Z,59.90
2018-04-20T23:54:31.125Z,60.00
2018-04-20T23:56:58.570Z,60.00
2018-04-20T23:59:26.035Z,60.00
